Time;durP1;ratioP1;P1;durP2;ratioP2;P2;SDS_P1;SDS_P2;PMS_P1;PMS_P2;Temp;Humidity;BMP_temperature;BMP_pressure;BME280_temperature;BME280_humidity;BME280_pressure;Samples;Min_cycle;Max_cycle;Signal;HPM_P1;HPM_P2
2024/01/26 06:26:29;;;;;;;1.40;0.90;;;23.50;55.80;;;;;;5032973;28;20886;-92
2024/01/26 06:28:58;;;;;;;3.17;1.47;;;23.60;55.70;;;;;;5032793;28;20452;-90
2024/01/26 06:34:08;;;;;;;7.17;4.40;;;23.60;55.80;;;;;;5033032;28;20489;-91
2024/01/26 07:53:01;;;;;;;2.80;2.07;;;23.90;56.50;;;;;;5053742;28;20536;-87
2024/01/26 07:55:29;;;;;;;8.40;4.30;;;23.90;56.50;;;;;;5034491;28;20480;-82
2024/01/26 07:57:56;;;;;;;8.50;4.23;;;23.90;56.10;;;;;;5035129;28;20450;-82
2024/01/26 08:00:35;;;;;;;13.37;6.17;;;23.80;55.70;;;;;;5055373;28;20456;-94
2024/01/26 08:03:02;;;;;;;22.40;8.63;;;23.80;56.10;;;;;;5028029;28;20477;-89
2024/01/26 08:05:29;;;;;;;21.63;9.53;;;23.80;56.10;;;;;;5049136;28;21068;-87
2024/01/26 08:07:56;;;;;;;17.30;9.30;;;23.90;56.20;;;;;;5052802;28;20979;-87
2024/01/26 08:10:23;;;;;;;17.27;11.83;;;23.90;56.30;;;;;;5053342;28;20445;-87
2024/01/26 08:12:52;;;;;;;24.00;12.43;;;23.80;56.30;;;;;;5053689;28;20846;-87
2024/01/26 08:15:19;;;;;;;19.60;11.87;;;23.90;56.40;;;;;;5053623;28;20430;-86
2024/01/26 08:17:46;;;;;;;17.63;10.97;;;23.90;56.30;;;;;;5053776;28;20448;-86
2024/01/26 08:20:12;;;;;;;17.27;11.00;;;23.90;56.30;;;;;;5054231;28;20440;-87
2024/01/26 08:22:39;;;;;;;23.57;12.77;;;23.80;56.20;;;;;;5055014;28;20457;-87
2024/01/26 08:25:07;;;;;;;21.07;12.20;;;23.90;56.30;;;;;;5055269;28;20444;-88
2024/01/26 08:27:34;;;;;;;26.37;11.30;;;23.90;56.30;;;;;;5055024;28;20445;-87
2024/01/26 08:30:03;;;;;;;21.40;12.20;;;24.00;56.30;;;;;;5055034;28;20523;-87
2024/01/26 08:32:30;;;;;;;20.83;11.70;;;23.90;56.20;;;;;;5055284;28;20441;-87
2024/01/26 08:34:57;;;;;;;18.60;11.23;;;23.90;56.10;;;;;;5055281;28;20440;-87
2024/01/26 08:37:24;;;;;;;17.13;10.97;;;23.90;56.10;;;;;;5055182;28;20505;-86
2024/01/26 08:39:50;;;;;;;19.10;12.60;;;23.90;56.10;;;;;;5054685;28;20433;-86
2024/01/26 08:42:17;;;;;;;18.70;11.63;;;23.90;56.10;;;;;;5055029;28;20442;-87
2024/01/26 08:44:44;;;;;;;16.77;11.10;;;24.00;56.10;;;;;;5055048;28;20592;-87
2024/01/26 08:47:12;;;;;;;14.07;10.23;;;23.90;56.10;;;;;;5054930;28;20444;-87
2024/01/26 08:49:39;;;;;;;18.67;11.37;;;24.00;56.00;;;;;;5054671;28;20524;-87
2024/01/26 08:52:07;;;;;;;18.30;10.40;;;24.00;56.00;;;;;;5054555;28;20433;-87
2024/01/26 08:54:34;;;;;;;17.23;10.47;;;24.00;56.00;;;;;;5054490;28;20475;-87
2024/01/26 08:57:00;;;;;;;15.30;9.30;;;24.00;56.00;;;;;;5054641;28;20795;-87
2024/01/26 08:59:28;;;;;;;17.17;9.27;;;24.10;56.00;;;;;;5054541;28;20448;-86
2024/01/26 09:01:55;;;;;;;15.60;10.07;;;24.00;55.90;;;;;;5054798;28;20441;-87
2024/01/26 09:04:23;;;;;;;15.53;9.73;;;24.00;55.90;;;;;;5054383;28;20547;-87
2024/01/26 09:06:50;;;;;;;17.20;9.40;;;24.00;55.80;;;;;;5054329;28;20440;-87
2024/01/26 09:09:17;;;;;;;16.20;8.73;;;24.10;55.90;;;;;;5054289;28;20445;-87
2024/01/26 09:11:44;;;;;;;11.40;8.70;;;24.10;55.90;;;;;;5054413;28;20790;-87
2024/01/26 09:14:11;;;;;;;16.43;9.10;;;24.10;55.80;;;;;;5054393;28;20437;-86
2024/01/26 09:16:37;;;;;;;13.80;8.83;;;24.10;55.80;;;;;;5054275;28;20537;-86
2024/01/26 09:19:04;;;;;;;13.90;8.60;;;24.20;55.80;;;;;;5054475;28;20433;-86
2024/01/26 09:21:32;;;;;;;12.30;8.63;;;24.10;55.70;;;;;;5078255;28;20441;-86
2024/01/26 09:23:59;;;;;;;13.67;9.00;;;24.10;55.60;;;;;;5078514;28;20549;-87
2024/01/26 09:26:28;;;;;;;15.23;9.27;;;24.10;55.60;;;;;;5077985;28;20422;-86
2024/01/26 09:28:54;;;;;;;13.33;9.10;;;24.10;55.60;;;;;;5056104;28;20441;-86
2024/01/26 09:31:21;;;;;;;15.00;8.57;;;24.10;55.60;;;;;;5054865;28;20434;-86
2024/01/26 09:33:48;;;;;;;11.80;8.10;;;24.10;55.60;;;;;;5054694;28;20437;-86
2024/01/26 09:36:15;;;;;;;10.40;7.43;;;24.10;55.60;;;;;;5054089;28;20441;-87
2024/01/26 09:38:45;;;;;;;14.27;8.50;;;24.10;55.60;;;;;;5053836;28;20442;-86
2024/01/26 09:41:12;;;;;;;16.80;8.47;;;24.10;55.60;;;;;;5053705;28;20876;-87
2024/01/26 09:43:39;;;;;;;11.07;7.50;;;24.10;55.60;;;;;;5053606;28;20507;-87
2024/01/26 09:46:05;;;;;;;13.17;6.83;;;24.10;55.70;;;;;;5054056;28;20448;-87
2024/01/26 09:48:34;;;;;;;10.67;7.50;;;24.10;55.60;;;;;;5053799;28;20857;-87
2024/01/26 09:51:01;;;;;;;9.70;7.50;;;24.10;55.60;;;;;;5053668;28;20441;-87
2024/01/26 09:53:30;;;;;;;13.80;8.40;;;24.10;55.80;;;;;;5056618;28;20478;-88
2024/01/26 09:56:00;;;;;;;10.47;7.23;;;24.10;55.70;;;;;;5073649;28;20437;-88
2024/01/26 09:58:27;;;;;;;14.70;7.03;;;24.10;55.60;;;;;;5073821;28;20486;-87
2024/01/26 10:00:56;;;;;;;13.17;8.23;;;24.10;55.60;;;;;;5073762;28;20445;-87
2024/01/26 10:03:24;;;;;;;10.47;6.60;;;24.10;55.60;;;;;;5073716;28;20987;-87
2024/01/26 10:05:51;;;;;;;10.30;5.90;;;24.10;55.60;;;;;;5075119;28;20433;-87
2024/01/26 10:08:18;;;;;;;11.37;7.20;;;24.20;55.70;;;;;;5074153;28;20468;-87
2024/01/26 10:10:46;;;;;;;8.33;6.07;;;24.10;55.60;;;;;;5073823;28;20441;-87
2024/01/26 10:13:15;;;;;;;15.97;7.10;;;24.10;55.70;;;;;;5074558;28;20436;-88
2024/01/26 10:15:42;;;;;;;11.33;6.10;;;24.10;55.60;;;;;;5074632;28;20950;-88
2024/01/26 10:18:09;;;;;;;10.97;5.70;;;24.10;55.60;;;;;;5074147;28;20531;-87
2024/01/26 10:20:38;;;;;;;11.90;7.10;;;24.10;55.70;;;;;;5075665;28;20444;-87
2024/01/26 10:23:05;;;;;;;7.80;5.80;;;24.10;55.60;;;;;;5085130;28;20484;-89
2024/01/26 10:25:32;;;;;;;8.83;7.03;;;24.10;55.60;;;;;;5098135;28;20542;-89
2024/01/26 10:27:59;;;;;;;8.03;5.80;;;24.10;55.60;;;;;;5092596;28;20468;-88
2024/01/26 10:30:27;;;;;;;10.40;6.60;;;24.10;55.60;;;;;;5073181;28;20458;-88
2024/01/26 10:32:56;;;;;;;8.33;5.90;;;24.10;55.60;;;;;;5073162;28;20437;-88
2024/01/26 10:35:23;;;;;;;6.47;5.30;;;24.10;55.60;;;;;;5073183;28;20440;-87
2024/01/26 10:37:50;;;;;;;8.90;5.67;;;24.10;56.20;;;;;;5073118;28;20440;-87
2024/01/26 10:40:19;;;;;;;9.00;5.40;;;24.10;55.60;;;;;;5073052;28;20523;-87
2024/01/26 10:42:47;;;;;;;8.57;6.10;;;24.10;55.60;;;;;;5075452;28;20444;-88
2024/01/26 10:45:15;;;;;;;9.60;5.53;;;24.10;55.60;;;;;;5077289;28;21076;-87
2024/01/26 10:47:44;;;;;;;7.30;5.10;;;24.10;55.60;;;;;;5078395;28;20931;-88
2024/01/26 10:50:11;;;;;;;8.60;5.43;;;24.10;55.60;;;;;;5077218;28;20440;-88
2024/01/26 10:52:39;;;;;;;11.27;6.17;;;24.10;55.60;;;;;;5059017;28;20463;-88
2024/01/26 10:55:07;;;;;;;8.40;5.47;;;24.10;55.70;;;;;;5076830;28;20478;-87
2024/01/26 10:57:34;;;;;;;6.63;4.23;;;24.00;55.60;;;;;;5076959;28;20945;-87
2024/01/26 11:00:01;;;;;;;7.30;5.40;;;24.00;55.80;;;;;;5076836;28;20439;-87
2024/01/26 11:02:31;;;;;;;8.50;5.10;;;24.00;55.80;;;;;;5076722;28;20567;-87
2024/01/26 11:04:59;;;;;;;7.10;4.80;;;24.00;55.80;;;;;;5076641;28;20577;-86
2024/01/26 11:07:27;;;;;;;6.97;4.60;;;24.00;55.80;;;;;;5076742;28;20438;-86
2024/01/26 11:10:01;;;;;;;6.47;4.80;;;24.00;55.80;;;;;;5076672;28;20443;-86
2024/01/26 11:12:29;;;;;;;8.00;4.40;;;24.00;55.80;;;;;;5076743;28;20428;-86
2024/01/26 11:15:09;;;;;;;6.27;4.03;;;24.00;55.80;;;;;;5077062;28;20513;-87
2024/01/26 11:17:45;;;;;;;7.63;4.60;;;24.00;55.80;;;;;;5076334;28;20447;-87
2024/01/26 11:20:18;;;;;;;4.93;4.13;;;24.00;55.80;;;;;;5076541;28;20443;-86
2024/01/26 11:22:45;;;;;;;8.90;4.73;;;24.00;55.80;;;;;;5076157;28;20877;-87
2024/01/26 11:25:21;;;;;;;5.70;3.70;;;24.00;55.90;;;;;;5076399;28;20514;-87
2024/01/26 11:27:49;;;;;;;6.73;4.23;;;24.00;55.80;;;;;;5076587;28;20443;-87
2024/01/26 11:30:24;;;;;;;5.80;4.60;;;24.00;55.90;;;;;;5076208;28;20440;-87
2024/01/26 11:32:51;;;;;;;4.97;4.10;;;24.00;55.80;;;;;;5076232;28;20443;-87
2024/01/26 11:35:19;;;;;;;5.33;3.67;;;24.00;55.80;;;;;;5076390;28;20440;-87
2024/01/26 11:37:46;;;;;;;5.30;3.60;;;24.00;55.80;;;;;;5076317;28;20969;-87
2024/01/26 11:40:13;;;;;;;5.97;3.97;;;24.00;55.80;;;;;;5076109;28;20444;-87
2024/01/26 11:42:41;;;;;;;7.70;4.30;;;24.00;55.80;;;;;;5075711;28;20467;-87
2024/01/26 11:45:09;;;;;;;6.70;4.40;;;24.00;55.80;;;;;;5058190;28;21061;-87
2024/01/26 11:47:39;;;;;;;5.67;3.77;;;24.00;55.80;;;;;;5075879;28;20514;-87
2024/01/26 11:50:07;;;;;;;6.90;3.53;;;24.00;55.80;;;;;;5076080;28;20490;-87
2024/01/26 11:52:36;;;;;;;6.20;3.83;;;24.00;55.80;;;;;;5075090;28;20524;-87
2024/01/26 11:55:05;;;;;;;4.60;3.30;;;24.10;55.90;;;;;;5075837;28;20456;-86
2024/01/26 11:57:32;;;;;;;5.20;3.37;;;24.00;55.80;;;;;;5075767;28;20436;-86
2024/01/26 12:00:00;;;;;;;5.83;3.63;;;24.00;55.80;;;;;;5075788;28;20593;-87
2024/01/26 12:02:27;;;;;;;5.23;3.80;;;24.00;55.80;;;;;;5075486;28;20446;-86
2024/01/26 12:04:53;;;;;;;8.50;4.20;;;24.00;55.90;;;;;;5075867;28;20491;-87
2024/01/26 12:07:20;;;;;;;6.37;3.70;;;24.00;55.90;;;;;;5075820;28;20438;-86
2024/01/26 12:09:48;;;;;;;4.67;3.17;;;24.00;56.00;;;;;;5075560;28;20440;-87
2024/01/26 12:12:16;;;;;;;5.23;3.47;;;24.10;56.10;;;;;;5075546;28;20441;-86
2024/01/26 12:14:43;;;;;;;6.40;4.03;;;24.00;56.00;;;;;;5075628;28;20436;-86
2024/01/26 12:17:10;;;;;;;6.20;3.93;;;24.00;56.70;;;;;;5075333;28;20774;-86
2024/01/26 12:19:38;;;;;;;7.03;3.97;;;24.00;56.10;;;;;;5075635;28;20444;-87
2024/01/26 12:22:07;;;;;;;4.33;2.80;;;24.10;56.20;;;;;;5075339;28;20587;-87
2024/01/26 12:24:34;;;;;;;5.43;3.70;;;24.10;56.20;;;;;;5075687;28;20491;-87
2024/01/26 12:27:03;;;;;;;5.33;3.37;;;24.10;56.20;;;;;;5075170;28;20874;-87
2024/01/26 12:29:30;;;;;;;6.20;3.20;;;24.10;56.30;;;;;;5075226;28;20463;-87
2024/01/26 12:32:03;;;;;;;4.83;3.13;;;24.10;56.30;;;;;;5075301;28;20507;-87
2024/01/26 12:34:29;;;;;;;5.67;3.60;;;24.10;56.40;;;;;;5075203;28;20455;-87
2024/01/26 12:36:59;;;;;;;4.03;3.00;;;24.10;56.40;;;;;;5074760;28;20887;-87
2024/01/26 12:39:26;;;;;;;4.70;2.70;;;24.10;56.50;;;;;;5074918;28;20483;-88
2024/01/26 12:41:53;;;;;;;5.37;2.90;;;24.10;56.50;;;;;;5075118;28;20540;-87
2024/01/26 12:44:28;;;;;;;4.40;3.20;;;24.10;56.50;;;;;;5075126;28;21001;-87
2024/01/26 12:46:55;;;;;;;4.50;3.00;;;24.10;56.50;;;;;;5074887;28;20436;-87
2024/01/26 12:49:22;;;;;;;4.23;3.17;;;24.10;56.60;;;;;;5074918;28;20416;-87
2024/01/26 12:51:48;;;;;;;5.03;3.00;;;24.10;56.60;;;;;;5074752;28;20437;-87
2024/01/26 12:54:15;;;;;;;5.80;3.07;;;24.10;56.50;;;;;;5074641;28;20564;-88
2024/01/26 12:56:42;;;;;;;4.03;2.60;;;24.10;56.50;;;;;;5074896;28;20797;-88
2024/01/26 12:59:09;;;;;;;4.70;3.27;;;24.10;56.40;;;;;;5074735;28;20456;-88
2024/01/26 13:01:39;;;;;;;5.17;3.40;;;24.20;56.50;;;;;;5074482;28;20935;-88
2024/01/26 13:04:07;;;;;;;4.40;3.20;;;24.20;56.60;;;;;;5073751;28;20539;-88
2024/01/26 13:06:34;;;;;;;4.27;2.53;;;24.20;56.60;;;;;;5074183;28;20447;-88
2024/01/26 13:09:01;;;;;;;4.47;2.90;;;24.20;56.50;;;;;;5074426;28;20440;-88
2024/01/26 13:11:28;;;;;;;3.30;2.63;;;24.20;56.50;;;;;;5074203;28;20441;-88
2024/01/26 13:13:55;;;;;;;4.10;2.80;;;24.20;56.50;;;;;;5074505;28;20443;-88
2024/01/26 13:16:22;;;;;;;3.93;2.40;;;24.20;56.50;;;;;;5074386;28;20436;-88
2024/01/26 13:18:50;;;;;;;4.10;2.30;;;24.20;56.50;;;;;;5074194;28;20908;-88
2024/01/26 13:21:17;;;;;;;3.00;2.20;;;24.20;56.40;;;;;;5074142;28;20425;-88
2024/01/26 13:23:44;;;;;;;3.90;2.50;;;24.30;56.50;;;;;;5074016;28;20460;-88
2024/01/26 13:26:11;;;;;;;4.70;2.47;;;24.30;56.50;;;;;;5074292;28;20484;-88
2024/01/26 13:28:38;;;;;;;3.73;2.70;;;24.30;56.50;;;;;;5074209;28;20441;-88
2024/01/26 13:31:05;;;;;;;2.70;2.10;;;24.30;56.50;;;;;;5073883;28;20446;-88
2024/01/26 13:33:32;;;;;;;4.90;2.63;;;24.20;56.40;;;;;;5073926;28;20436;-88
2024/01/26 13:36:01;;;;;;;6.23;2.70;;;24.20;56.40;;;;;;5086626;28;20454;-88
2024/01/26 13:38:30;;;;;;;5.07;2.57;;;24.20;56.40;;;;;;5098639;28;20461;-88
2024/01/26 13:40:57;;;;;;;5.43;2.77;;;24.30;56.50;;;;;;5090064;28;20441;-88
2024/01/26 13:43:26;;;;;;;4.33;2.23;;;24.20;56.40;;;;;;5073848;28;20436;-87
2024/01/26 13:45:54;;;;;;;5.07;2.73;;;24.20;56.40;;;;;;5073773;28;20546;-87
2024/01/26 13:48:21;;;;;;;2.53;1.90;;;24.20;56.40;;;;;;5074082;28;20472;-88
2024/01/26 13:50:50;;;;;;;3.60;2.20;;;24.20;56.40;;;;;;5073814;28;20441;-88
2024/01/26 13:53:21;;;;;;;2.80;1.60;;;24.20;56.40;;;;;;5073424;28;20543;-88
2024/01/26 13:55:48;;;;;;;4.03;2.40;;;24.20;56.40;;;;;;5073774;28;20440;-88
2024/01/26 13:58:15;;;;;;;2.10;1.77;;;24.20;56.40;;;;;;5073729;28;20428;-88
2024/01/26 14:00:43;;;;;;;3.10;2.10;;;24.20;56.30;;;;;;5073709;28;20513;-88
2024/01/26 14:03:10;;;;;;;3.30;2.43;;;24.20;56.30;;;;;;5091801;28;20441;-88
2024/01/26 14:05:37;;;;;;;3.87;2.30;;;24.20;56.30;;;;;;5098135;28;20503;-86
2024/01/26 14:08:04;;;;;;;3.60;2.50;;;24.20;56.30;;;;;;5098182;28;20427;-87
2024/01/26 14:10:33;;;;;;;3.00;2.30;;;24.20;56.20;;;;;;5082496;28;20428;-87
2024/01/26 14:13:00;;;;;;;2.97;2.27;;;24.20;56.30;;;;;;5075381;28;20501;-88
2024/01/26 14:15:29;;;;;;;2.60;1.93;;;24.20;56.30;;;;;;5074819;28;20539;-88
2024/01/26 14:17:56;;;;;;;3.37;2.10;;;24.20;56.20;;;;;;5074115;28;20474;-88
2024/01/26 14:20:23;;;;;;;2.90;1.90;;;24.30;56.20;;;;;;5073616;28;20437;-88
2024/01/26 14:22:51;;;;;;;3.40;2.20;;;24.30;56.20;;;;;;5072877;28;20499;-88
2024/01/26 14:25:20;;;;;;;2.80;1.97;;;24.30;56.20;;;;;;5073403;28;20571;-88
2024/01/26 14:27:49;;;;;;;2.67;2.20;;;24.40;56.20;;;;;;5073504;28;20445;-88
2024/01/26 14:30:17;;;;;;;2.70;1.67;;;24.30;56.10;;;;;;5073251;28;20476;-88
2024/01/26 14:32:44;;;;;;;2.83;1.70;;;24.30;56.10;;;;;;5073256;28;20439;-88
2024/01/26 14:35:14;;;;;;;1.97;1.60;;;24.30;56.10;;;;;;5073126;28;20436;-88
2024/01/26 14:37:42;;;;;;;3.93;1.60;;;24.30;56.10;;;;;;5073196;28;20441;-88
2024/01/26 14:40:14;;;;;;;2.77;2.13;;;24.20;56.00;;;;;;5073283;28;20792;-88
2024/01/26 14:42:41;;;;;;;2.60;1.70;;;24.20;56.00;;;;;;5073287;28;20441;-88
2024/01/26 14:45:11;;;;;;;3.60;2.20;;;24.20;56.00;;;;;;5073682;28;20468;-88
2024/01/26 14:47:38;;;;;;;2.97;1.60;;;24.20;56.00;;;;;;5073025;28;20931;-88
2024/01/26 14:50:09;;;;;;;2.97;1.80;;;24.20;56.00;;;;;;5072963;28;20462;-88
2024/01/26 14:52:36;;;;;;;3.20;1.90;;;24.20;56.00;;;;;;5073037;28;20499;-89
2024/01/26 14:55:04;;;;;;;3.27;2.37;;;24.30;56.10;;;;;;5072747;28;20468;-89
2024/01/26 14:57:31;;;;;;;2.50;1.80;;;24.30;56.10;;;;;;5074360;28;20440;-88
2024/01/26 14:59:58;;;;;;;3.17;1.37;;;24.20;55.90;;;;;;5072926;28;20432;-87
2024/01/26 15:02:27;;;;;;;2.40;1.73;;;24.20;55.90;;;;;;5072860;28;20440;-88
2024/01/26 15:04:53;;;;;;;3.37;2.00;;;24.20;56.50;;;;;;5072997;28;20440;-88
2024/01/26 15:07:20;;;;;;;2.47;1.73;;;24.20;55.90;;;;;;5072964;28;20436;-89
2024/01/26 15:09:47;;;;;;;2.60;1.60;;;24.20;55.90;;;;;;5072829;28;20539;-89
2024/01/26 15:12:14;;;;;;;4.20;1.60;;;24.30;55.90;;;;;;5072728;28;20436;-88
2024/01/26 15:14:41;;;;;;;3.10;1.43;;;24.20;55.80;;;;;;5072798;28;20498;-90
2024/01/26 15:17:07;;;;;;;2.40;1.47;;;24.20;55.80;;;;;;5072939;28;20446;-88
2024/01/26 15:19:36;;;;;;;3.47;2.20;;;24.20;55.80;;;;;;5072902;28;20452;-89
2024/01/26 15:22:10;;;;;;;3.00;1.80;;;24.20;55.80;;;;;;5072712;28;20566;-89
2024/01/26 15:24:39;;;;;;;2.10;1.60;;;24.20;55.80;;;;;;5072582;28;20440;-88
2024/01/26 15:27:06;;;;;;;2.07;1.50;;;24.20;55.80;;;;;;5072309;28;20614;-89
2024/01/26 15:29:36;;;;;;;2.00;1.47;;;24.20;55.80;;;;;;5057839;28;20437;-89
2024/01/26 15:32:04;;;;;;;2.53;1.60;;;24.20;55.80;;;;;;5076371;28;20436;-88
2024/01/26 15:34:31;;;;;;;2.27;1.53;;;24.20;55.80;;;;;;5076389;28;20494;-88
2024/01/26 15:37:00;;;;;;;2.50;1.77;;;24.20;55.80;;;;;;5058427;28;20476;-88
2024/01/26 15:39:28;;;;;;;3.30;1.33;;;24.20;55.70;;;;;;5076180;28;20531;-88
2024/01/26 15:41:55;;;;;;;2.47;1.70;;;24.20;55.70;;;;;;5076054;28;20532;-89
2024/01/26 15:44:23;;;;;;;3.43;1.67;;;24.20;55.70;;;;;;5058614;28;20494;-89
2024/01/26 15:46:51;;;;;;;4.20;1.37;;;24.20;55.70;;;;;;5074992;28;20502;-89
2024/01/26 15:49:19;;;;;;;3.10;1.70;;;24.20;55.60;;;;;;5076077;28;20447;-88
2024/01/26 15:51:46;;;;;;;2.23;1.53;;;24.20;55.60;;;;;;5075775;28;20444;-89
2024/01/26 15:54:14;;;;;;;2.23;1.37;;;24.20;55.70;;;;;;5076117;28;20555;-88
2024/01/26 15:56:41;;;;;;;2.80;1.30;;;24.20;55.60;;;;;;5075844;28;20494;-89
2024/01/26 15:59:08;;;;;;;2.67;1.53;;;24.20;56.10;;;;;;5075751;28;20471;-89
2024/01/26 16:01:36;;;;;;;3.53;1.70;;;24.20;55.50;;;;;;5075669;28;21001;-88
2024/01/26 16:04:04;;;;;;;2.47;1.40;;;24.20;55.50;;;;;;5075553;28;20528;-89
2024/01/26 16:06:31;;;;;;;2.07;1.30;;;24.20;55.50;;;;;;5057500;28;20475;-89
2024/01/26 16:08:58;;;;;;;3.17;1.60;;;24.20;55.50;;;;;;5075167;28;20852;-89
2024/01/26 16:11:26;;;;;;;2.20;1.17;;;24.20;55.50;;;;;;5075762;28;20442;-89
2024/01/26 16:13:54;;;;;;;3.40;1.97;;;24.20;55.40;;;;;;5075629;28;20464;-89
2024/01/26 16:16:21;;;;;;;2.17;1.57;;;24.20;55.40;;;;;;5075669;28;20805;-88
2024/01/26 16:18:49;;;;;;;2.73;1.57;;;24.20;55.40;;;;;;5075298;28;20445;-89
2024/01/26 16:21:16;;;;;;;2.73;1.70;;;24.20;55.40;;;;;;5075634;28;20518;-89
2024/01/26 16:23:43;;;;;;;2.77;1.63;;;24.20;55.40;;;;;;5075299;28;20859;-89
2024/01/26 16:26:13;;;;;;;2.37;1.40;;;24.20;55.30;;;;;;5075166;28;20498;-89
2024/01/26 16:28:41;;;;;;;1.90;1.20;;;24.20;55.30;;;;;;5075466;28;20432;-89
2024/01/26 16:31:08;;;;;;;2.23;1.23;;;24.20;55.30;;;;;;5075100;28;20443;-89
2024/01/26 16:33:37;;;;;;;2.20;1.30;;;24.30;55.30;;;;;;5075292;28;20443;-89
2024/01/26 16:36:05;;;;;;;2.40;1.43;;;24.20;55.30;;;;;;5075031;28;20459;-89
2024/01/26 16:38:32;;;;;;;2.20;1.47;;;24.20;55.30;;;;;;5075095;28;20441;-89
2024/01/26 16:40:58;;;;;;;2.70;1.40;;;24.20;55.20;;;;;;5075477;28;20444;-89
2024/01/26 16:43:25;;;;;;;1.80;1.20;;;24.20;55.20;;;;;;5075105;28;20439;-89
2024/01/26 16:45:53;;;;;;;1.93;1.20;;;24.20;55.20;;;;;;5077670;28;20488;-89
2024/01/26 16:48:20;;;;;;;2.13;1.20;;;24.20;55.20;;;;;;5099772;28;20471;-88
2024/01/26 16:50:47;;;;;;;2.10;1.33;;;24.20;55.20;;;;;;5099687;28;20439;-88
2024/01/26 16:53:14;;;;;;;2.40;1.40;;;24.20;55.20;;;;;;5074779;28;20971;-89
2024/01/26 16:55:41;;;;;;;1.57;1.00;;;24.20;55.10;;;;;;5075072;28;20451;-89
2024/01/26 16:58:07;;;;;;;2.17;1.33;;;24.20;55.10;;;;;;5074804;28;20429;-89
2024/01/26 17:00:34;;;;;;;2.07;1.20;;;24.20;55.10;;;;;;5074692;28;20433;-89
2024/01/26 17:03:02;;;;;;;2.00;1.00;;;24.20;55.10;;;;;;5074892;28;20425;-89
2024/01/26 17:05:29;;;;;;;2.37;1.47;;;24.20;55.10;;;;;;5074596;28;20429;-89
2024/01/26 17:07:56;;;;;;;3.03;1.37;;;24.20;55.10;;;;;;5074362;28;20441;-89
2024/01/26 17:10:23;;;;;;;1.80;1.30;;;24.20;55.10;;;;;;5074418;28;20440;-89
2024/01/26 17:12:50;;;;;;;1.60;1.10;;;24.30;55.20;;;;;;5074673;28;20451;-89
2024/01/26 17:15:18;;;;;;;2.03;1.10;;;24.20;55.00;;;;;;5074478;28;20436;-89
2024/01/26 17:17:45;;;;;;;2.10;1.33;;;24.20;55.00;;;;;;5074513;28;20437;-89
2024/01/26 17:20:13;;;;;;;1.90;1.30;;;24.30;55.10;;;;;;5074301;28;20795;-89
2024/01/26 17:22:40;;;;;;;2.43;1.37;;;24.20;55.00;;;;;;5073960;28;20460;-89
2024/01/26 17:25:08;;;;;;;1.83;1.20;;;24.20;55.00;;;;;;5074421;28;20441;-89
2024/01/26 17:27:35;;;;;;;1.90;1.17;;;24.20;55.00;;;;;;5074207;28;20490;-88
2024/01/26 17:30:02;;;;;;;2.10;1.20;;;24.20;55.00;;;;;;5074036;28;20439;-89
2024/01/26 17:32:28;;;;;;;2.10;1.37;;;24.40;55.00;;;;;;5074061;28;20874;-89
2024/01/26 17:34:57;;;;;;;1.90;1.00;;;24.20;54.90;;;;;;5074052;28;20443;-89
2024/01/26 17:37:26;;;;;;;2.00;1.10;;;24.30;55.00;;;;;;5073911;28;20515;-89
2024/01/26 17:39:53;;;;;;;2.83;1.30;;;24.30;54.90;;;;;;5073580;28;20448;-89
2024/01/26 17:42:20;;;;;;;1.70;1.00;;;24.30;54.90;;;;;;5056154;28;20435;-89
2024/01/26 17:44:49;;;;;;;1.80;1.00;;;24.30;54.90;;;;;;5074062;28;20429;-92
2024/01/26 17:47:17;;;;;;;6.67;1.40;;;24.20;54.90;;;;;;5070927;28;20472;-82
2024/01/26 17:49:44;;;;;;;5.23;1.50;;;24.20;54.10;;;;;;5061221;28;20459;-86
2024/01/26 17:52:11;;;;;;;4.87;1.50;;;24.20;54.50;;;;;;5064399;28;20537;-83
2024/01/26 17:54:39;;;;;;;6.50;1.70;;;24.10;53.80;;;;;;5061947;28;20476;-82
2024/01/26 17:57:06;;;;;;;4.77;1.60;;;24.00;54.00;;;;;;5069187;28;20444;-89
2024/01/26 17:59:33;;;;;;;12.93;1.90;;;24.00;54.50;;;;;;5055940;28;20441;-89
2024/01/26 18:02:00;;;;;;;5.07;2.60;;;24.00;54.80;;;;;;5053517;28;20458;-90
2024/01/26 18:04:26;;;;;;;7.17;3.40;;;24.10;55.10;;;;;;5066968;28;20547;-90
2024/01/26 18:06:53;;;;;;;10.73;4.23;;;24.10;55.30;;;;;;5074076;28;20491;-88
2024/01/26 18:09:22;;;;;;;9.07;4.77;;;24.30;55.60;;;;;;5057403;28;20854;-89
2024/01/26 18:11:51;;;;;;;12.30;5.27;;;24.30;55.80;;;;;;5061586;28;20466;-89
2024/01/26 18:14:18;;;;;;;11.53;5.10;;;24.20;55.80;;;;;;5065881;28;20449;-88
2024/01/26 18:16:45;;;;;;;6.93;4.70;;;24.20;55.90;;;;;;5074907;28;20915;-88
2024/01/26 18:19:13;;;;;;;8.63;5.80;;;24.30;56.10;;;;;;5058868;28;20449;-89
2024/01/26 18:21:40;;;;;;;11.50;5.30;;;24.30;56.20;;;;;;5074508;28;20441;-90
2024/01/26 18:24:07;;;;;;;13.10;5.73;;;24.30;56.40;;;;;;5074319;28;20479;-90
2024/01/26 18:26:34;;;;;;;8.33;5.27;;;24.30;56.60;;;;;;5074098;28;20654;-90
2024/01/26 18:29:03;;;;;;;16.30;5.63;;;24.30;56.60;;;;;;5074445;28;20951;-90
2024/01/26 18:31:30;;;;;;;7.87;5.43;;;24.30;56.70;;;;;;5073739;28;20498;-90
2024/01/26 18:33:57;;;;;;;8.07;5.10;;;24.30;56.90;;;;;;5072969;28;20447;-89
2024/01/26 18:36:24;;;;;;;6.57;5.30;;;24.30;56.90;;;;;;5073570;28;20441;-89
2024/01/26 18:38:54;;;;;;;16.10;6.87;;;24.30;56.90;;;;;;5073932;28;20433;-90
2024/01/26 18:41:22;;;;;;;11.57;5.40;;;24.30;57.00;;;;;;5073354;28;20527;-89
2024/01/26 18:43:49;;;;;;;7.33;5.07;;;24.30;57.00;;;;;;5075201;28;20444;-89
2024/01/26 18:46:17;;;;;;;9.17;5.53;;;24.30;57.10;;;;;;5075775;28;20480;-90
2024/01/26 18:48:45;;;;;;;8.13;5.73;;;24.30;57.20;;;;;;5097802;28;20449;-89
2024/01/26 18:51:12;;;;;;;5.67;4.73;;;24.30;57.30;;;;;;5097851;28;20421;-89
2024/01/26 18:53:38;;;;;;;10.80;5.80;;;24.30;57.30;;;;;;5097781;28;20487;-89
2024/01/26 18:56:06;;;;;;;7.50;6.03;;;24.30;57.20;;;;;;5077017;28;20440;-89
2024/01/26 18:58:33;;;;;;;14.00;5.17;;;24.30;57.40;;;;;;5075815;28;20440;-90
2024/01/26 19:01:00;;;;;;;10.60;5.87;;;24.30;57.20;;;;;;5075251;28;20479;-88
2024/01/26 19:03:28;;;;;;;8.40;5.10;;;24.30;57.40;;;;;;5076178;28;20807;-89
2024/01/26 19:05:55;;;;;;;9.20;5.60;;;24.30;57.40;;;;;;5077596;28;20444;-85
2024/01/26 19:08:22;;;;;;;4.90;3.20;;;24.40;57.50;;;;;;5076672;28;20444;-83
2024/01/26 19:10:49;;;;;;;5.80;3.63;;;24.20;55.20;;;;;;5077210;28;20459;-89
2024/01/26 19:13:16;;;;;;;12.40;5.40;;;24.20;55.80;;;;;;5077432;28;20512;-89
2024/01/26 19:15:43;;;;;;;7.60;5.10;;;24.20;57.20;;;;;;5077422;28;20447;-89
2024/01/26 19:18:15;;;;;;;9.60;4.73;;;24.30;57.20;;;;;;5077722;28;20497;-91
2024/01/26 19:20:43;;;;;;;9.93;5.43;;;24.30;57.20;;;;;;5078031;28;20436;-91
2024/01/26 19:23:10;;;;;;;9.93;5.23;;;24.30;57.60;;;;;;5077908;28;20464;-89
2024/01/26 19:25:39;;;;;;;7.07;4.57;;;24.30;57.50;;;;;;5077900;28;20436;-90
2024/01/26 19:28:06;;;;;;;14.37;8.20;;;24.30;57.40;;;;;;5077413;28;20574;-90
2024/01/26 19:30:35;;;;;;;17.43;10.90;;;24.40;57.50;;;;;;5077893;28;20799;-89
2024/01/26 19:33:03;;;;;;;34.63;12.93;;;24.40;58.10;;;;;;5078091;28;20444;-90
2024/01/26 19:35:30;;;;;;;20.37;12.97;;;24.30;57.60;;;;;;5077613;28;20452;-91
2024/01/26 19:37:58;;;;;;;25.17;15.13;;;24.30;57.70;;;;;;5060453;28;20527;-89
2024/01/26 19:40:25;;;;;;;23.67;16.07;;;24.20;57.70;;;;;;5078609;28;20448;-91
2024/01/26 19:42:53;;;;;;;26.00;15.77;;;24.20;57.80;;;;;;5080184;28;20464;-91
2024/01/26 19:45:20;;;;;;;24.43;15.70;;;24.10;57.70;;;;;;5079177;28;20440;-90
2024/01/26 19:47:47;;;;;;;29.33;16.60;;;24.20;58.40;;;;;;5078904;28;20810;-93
2024/01/26 19:50:14;;;;;;;33.90;18.20;;;24.20;57.90;;;;;;5078239;28;20437;-93
2024/01/26 19:52:43;;;;;;;31.90;16.70;;;24.30;58.00;;;;;;5061314;28;20468;-91
2024/01/26 19:55:11;;;;;;;26.40;17.07;;;24.20;58.00;;;;;;5078926;28;20474;-90
2024/01/26 19:57:40;;;;;;;26.87;15.70;;;24.30;58.00;;;;;;5101273;28;20441;-90
2024/01/26 20:00:08;;;;;;;28.00;15.80;;;24.30;58.00;;;;;;5100902;28;20428;-91
2024/01/26 20:02:36;;;;;;;28.57;16.43;;;24.30;57.90;;;;;;5081723;28;20486;-90
2024/01/26 20:05:03;;;;;;;26.87;15.67;;;24.30;58.10;;;;;;5077803;28;20447;-92
2024/01/26 20:07:30;;;;;;;21.73;15.37;;;24.30;58.20;;;;;;5060436;28;20492;-92
2024/01/26 20:09:56;;;;;;;33.17;15.20;;;24.30;58.20;;;;;;5076805;28;20444;-92
2024/01/26 20:12:25;;;;;;;35.27;12.47;;;24.30;57.80;;;;;;5077281;28;20523;-90
2024/01/26 20:14:51;;;;;;;23.03;12.70;;;24.30;55.40;;;;;;5075760;28;20432;-87
2024/01/26 20:17:19;;;;;;;18.50;10.27;;;24.30;56.80;;;;;;5076274;28;20800;-89
2024/01/26 20:19:46;;;;;;;17.73;11.50;;;24.30;56.00;;;;;;5076743;28;20445;-87
2024/01/26 20:22:13;;;;;;;22.10;11.70;;;24.30;56.90;;;;;;5075790;28;20882;-90
2024/01/26 20:24:39;;;;;;;23.80;13.07;;;24.20;57.30;;;;;;5077059;28;20527;-90
2024/01/26 20:27:06;;;;;;;23.43;12.90;;;24.20;57.40;;;;;;5076813;28;20995;-91
2024/01/26 20:29:35;;;;;;;22.87;11.30;;;24.30;57.60;;;;;;5076323;28;20428;-91